createdAt,value
2018-05-18T00:00:02.377Z,929.69
2018-05-18T00:00:14.875Z,929.68
2018-05-18T00:00:27.421Z,929.74
2018-05-18T00:00:40.369Z,929.71
2018-05-18T00:00:52.917Z,929.68
2018-05-18T00:01:05.855Z,929.7
2018-05-18T00:01:18.424Z,929.74
2018-05-18T00:01:30.996Z,929.7
2018-05-18T00:01:43.483Z,929.7
2018-05-18T00:01:56.476Z,929.69
2018-05-18T00:02:09.457Z,929.7
2018-05-18T00:02:21.962Z,929.7
2018-05-18T00:02:34.504Z,929.65
2018-05-18T00:02:46.994Z,929.65
2018-05-18T00:03:00.017Z,929.7
2018-05-18T00:03:12.774Z,929.69
2018-05-18T00:03:25.745Z,929.66
2018-05-18T00:03:38.300Z,929.66
2018-05-18T00:03:50.818Z,929.69
2018-05-18T00:04:03.761Z,929.67
2018-05-18T00:04:16.269Z,929.63
2018-05-18T00:04:28.732Z,929.69
2018-05-18T00:04:41.763Z,929.69
2018-05-18T00:04:54.693Z,929.65
2018-05-18T00:05:07.697Z,929.69
2018-05-18T00:05:20.163Z,929.68
2018-05-18T00:05:32.622Z,929.7
2018-05-18T00:05:45.597Z,929.7
2018-05-18T00:05:58.557Z,929.68
2018-05-18T00:06:11.081Z,929.68
2018-05-18T00:06:23.655Z,929.68
2018-05-18T00:06:35.709Z,929.62
2018-05-18T00:06:48.239Z,929.66
2018-05-18T00:07:01.241Z,929.61
2018-05-18T00:07:14.197Z,929.62
2018-05-18T00:07:27.169Z,929.62
2018-05-18T00:07:39.711Z,929.66
2018-05-18T00:07:51.801Z,929.61
2018-05-18T00:08:04.304Z,929.62
2018-05-18T00:08:17.331Z,929.63
2018-05-18T00:08:29.832Z,929.67
2018-05-18T00:08:41.912Z,929.64
2018-05-18T00:08:54.947Z,929.64
2018-05-18T00:09:07.031Z,929.67
2018-05-18T00:09:19.568Z,929.68
2018-05-18T00:09:32.113Z,929.66
2018-05-18T00:09:45.056Z,929.64
2018-05-18T00:09:58.064Z,929.67
2018-05-18T00:10:10.352Z,929.69
2018-05-18T00:10:23.306Z,929.61
2018-05-18T00:10:36.283Z,929.65
2018-05-18T00:10:49.310Z,929.64
2018-05-18T00:11:01.850Z,929.68
2018-05-18T00:11:14.375Z,929.65
2018-05-18T00:11:26.874Z,929.63
2018-05-18T00:11:39.440Z,929.64
2018-05-18T00:11:52.398Z,929.63
2018-05-18T00:12:05.324Z,929.64
2018-05-18T00:12:17.352Z,929.64
2018-05-18T00:12:30.272Z,929.63
2018-05-18T00:12:42.317Z,929.65
2018-05-18T00:12:54.376Z,929.68
2018-05-18T00:13:07.703Z,929.67
2018-05-18T00:13:19.792Z,929.68
2018-05-18T00:13:32.786Z,929.67
2018-05-18T00:13:45.292Z,929.64
2018-05-18T00:13:56.920Z,929.65
2018-05-18T00:14:09.446Z,929.66
2018-05-18T00:14:21.990Z,929.61
2018-05-18T00:14:34.950Z,929.68
2018-05-18T00:14:47.941Z,929.66
2018-05-18T00:15:00.959Z,929.63
2018-05-18T00:15:13.940Z,929.67
2018-05-18T00:15:26.874Z,929.64
2018-05-18T00:15:39.359Z,929.66
2018-05-18T00:15:51.913Z,929.71
2018-05-18T00:16:04.904Z,929.64
2018-05-18T00:16:16.928Z,929.67
2018-05-18T00:16:29.877Z,929.67
2018-05-18T00:16:42.912Z,929.7
2018-05-18T00:16:55.854Z,929.67
2018-05-18T00:17:08.834Z,929.67
2018-05-18T00:17:21.800Z,929.69
2018-05-18T00:17:34.849Z,929.67
2018-05-18T00:17:47.312Z,929.68
2018-05-18T00:17:59.379Z,929.67
2018-05-18T00:18:11.645Z,929.72
2018-05-18T00:18:24.138Z,929.7
2018-05-18T00:18:37.123Z,929.7
2018-05-18T00:18:49.195Z,929.68
2018-05-18T00:19:02.167Z,929.69
2018-05-18T00:19:15.152Z,929.74
2018-05-18T00:19:28.161Z,929.72
2018-05-18T00:19:41.128Z,929.73
2018-05-18T00:19:53.592Z,929.69
2018-05-18T00:20:06.134Z,929.73
2018-05-18T00:20:19.105Z,929.69
2018-05-18T00:20:32.016Z,929.67
2018-05-18T00:20:44.541Z,929.68
2018-05-18T00:20:57.536Z,929.69
2018-05-18T00:21:10.527Z,929.67
2018-05-18T00:21:23.012Z,929.73
2018-05-18T00:21:35.545Z,929.78
2018-05-18T00:21:47.533Z,929.76
2018-05-18T00:22:00.470Z,929.76
2018-05-18T00:22:13.443Z,929.71
2018-05-18T00:22:25.956Z,929.7
2018-05-18T00:22:38.435Z,929.72
2018-05-18T00:22:50.947Z,929.71
2018-05-18T00:23:03.015Z,929.71
2018-05-18T00:23:16.145Z,929.74
2018-05-18T00:23:29.126Z,929.71
2018-05-18T00:23:41.594Z,929.69
2018-05-18T00:23:54.052Z,929.72
2018-05-18T00:24:07.101Z,929.75
2018-05-18T00:24:19.099Z,929.72
2018-05-18T00:24:32.060Z,929.72
2018-05-18T00:24:44.585Z,929.72
2018-05-18T00:24:57.568Z,929.73
2018-05-18T00:25:10.085Z,929.72
2018-05-18T00:25:23.005Z,929.73
2018-05-18T00:25:36.079Z,929.73
2018-05-18T00:25:48.557Z,929.7
2018-05-18T00:26:01.573Z,929.71
2018-05-18T00:26:14.071Z,929.68
2018-05-18T00:26:27.037Z,929.73
2018-05-18T00:26:38.605Z,929.73
2018-05-18T00:26:51.590Z,929.74
2018-05-18T00:27:03.605Z,929.73
2018-05-18T00:27:16.145Z,929.74
2018-05-18T00:27:29.110Z,929.71
2018-05-18T00:27:41.648Z,929.76
2018-05-18T00:27:54.238Z,929.73
2018-05-18T00:28:06.259Z,929.74
2018-05-18T00:28:19.230Z,929.73
2018-05-18T00:28:32.228Z,929.72
2018-05-18T00:28:45.236Z,929.71
2018-05-18T00:28:58.195Z,929.69
2018-05-18T00:29:10.698Z,929.75
2018-05-18T00:29:23.657Z,929.76
2018-05-18T00:29:36.191Z,929.74
2018-05-18T00:29:48.697Z,929.74
2018-05-18T00:30:01.662Z,929.72
2018-05-18T00:30:14.188Z,929.72
2018-05-18T00:30:26.685Z,929.75
2018-05-18T00:30:39.645Z,929.76
2018-05-18T00:30:52.126Z,929.79
2018-05-18T00:31:04.672Z,929.76
2018-05-18T00:31:17.665Z,929.78
2018-05-18T00:31:30.598Z,929.78
2018-05-18T00:31:43.540Z,929.75
2018-05-18T00:31:56.030Z,929.75
2018-05-18T00:32:08.980Z,929.74
2018-05-18T00:32:21.995Z,929.76
2018-05-18T00:32:34.437Z,929.69
2018-05-18T00:32:46.456Z,929.74
2018-05-18T00:32:58.941Z,929.7
2018-05-18T00:33:11.627Z,929.73
2018-05-18T00:33:23.638Z,929.73
2018-05-18T00:33:36.182Z,929.73
2018-05-18T00:33:48.693Z,929.76
2018-05-18T00:34:01.287Z,929.73
2018-05-18T00:34:14.253Z,929.75
2018-05-18T00:34:27.234Z,929.72
2018-05-18T00:34:40.183Z,929.74
2018-05-18T00:34:53.154Z,929.73
2018-05-18T00:35:05.627Z,929.77
2018-05-18T00:35:18.124Z,929.74
2018-05-18T00:35:31.121Z,929.74
2018-05-18T00:35:44.098Z,929.73
2018-05-18T00:35:56.565Z,929.74
2018-05-18T00:36:09.068Z,929.77
2018-05-18T00:36:22.074Z,929.73
2018-05-18T00:36:35.056Z,929.77
2018-05-18T00:36:48.039Z,929.76
2018-05-18T00:37:00.564Z,929.77
2018-05-18T00:37:13.053Z,929.76
2018-05-18T00:37:26.052Z,929.78
2018-05-18T00:37:39.052Z,929.74
2018-05-18T00:37:52.015Z,929.71
2018-05-18T00:38:04.968Z,929.74
2018-05-18T00:38:17.990Z,929.73
2018-05-18T00:38:31.066Z,929.74
2018-05-18T00:38:44.067Z,929.77
2018-05-18T00:38:56.530Z,929.72
2018-05-18T00:39:09.056Z,929.74
2018-05-18T00:39:21.590Z,929.71
2018-05-18T00:39:33.656Z,929.74
2018-05-18T00:39:46.577Z,929.76
2018-05-18T00:39:59.709Z,929.74
2018-05-18T00:40:12.398Z,929.72
2018-05-18T00:40:25.377Z,929.77
2018-05-18T00:40:38.358Z,929.72
2018-05-18T00:40:51.296Z,929.76
2018-05-18T00:41:03.677Z,929.79
2018-05-18T00:41:16.194Z,929.78
2018-05-18T00:41:29.153Z,929.78
2018-05-18T00:41:41.889Z,929.86
2018-05-18T00:41:54.820Z,929.8
2018-05-18T00:42:07.775Z,929.8
2018-05-18T00:42:19.759Z,929.8
2018-05-18T00:42:32.285Z,929.76
2018-05-18T00:42:45.265Z,929.82
2018-05-18T00:42:57.827Z,929.8
2018-05-18T00:43:10.346Z,929.85
2018-05-18T00:43:23.322Z,929.85
2018-05-18T00:43:36.216Z,929.84
2018-05-18T00:43:48.722Z,929.84
2018-05-18T00:44:01.231Z,929.82
2018-05-18T00:44:13.277Z,929.86
2018-05-18T00:44:25.370Z,929.88
2018-05-18T00:44:38.353Z,929.86
2018-05-18T00:44:51.308Z,929.86
2018-05-18T00:45:04.294Z,929.89
2018-05-18T00:45:16.798Z,929.84
2018-05-18T00:45:29.730Z,929.84
2018-05-18T00:45:42.683Z,929.87
2018-05-18T00:45:55.243Z,929.86
2018-05-18T00:46:07.737Z,929.84
2018-05-18T00:46:20.277Z,929.84
2018-05-18T00:46:32.384Z,929.88
2018-05-18T00:46:45.401Z,929.87
2018-05-18T00:46:57.927Z,929.81
2018-05-18T00:47:09.948Z,929.83
2018-05-18T00:47:22.881Z,929.83
2018-05-18T00:47:35.872Z,929.82
2018-05-18T00:47:48.315Z,929.83
2018-05-18T00:48:00.794Z,929.82
2018-05-18T00:48:12.830Z,929.83
2018-05-18T00:48:25.543Z,929.8
2018-05-18T00:48:37.579Z,929.79
2018-05-18T00:48:50.061Z,929.78
2018-05-18T00:49:02.548Z,929.81
2018-05-18T00:49:14.189Z,929.82
2018-05-18T00:49:27.188Z,929.84
2018-05-18T00:49:40.155Z,929.82
2018-05-18T00:49:52.192Z,929.81
2018-05-18T00:50:05.145Z,929.8
2018-05-18T00:50:18.161Z,929.83
2018-05-18T00:50:30.242Z,929.79
2018-05-18T00:50:43.203Z,929.83
2018-05-18T00:50:56.211Z,929.78
2018-05-18T00:51:08.274Z,929.84
2018-05-18T00:51:20.778Z,929.85
2018-05-18T00:51:33.743Z,929.81
2018-05-18T00:51:46.328Z,929.85
2018-05-18T00:51:58.829Z,929.88
2018-05-18T00:52:10.968Z,929.86
2018-05-18T00:52:23.447Z,929.88
2018-05-18T00:52:36.377Z,929.87
2018-05-18T00:52:48.440Z,929.88
2018-05-18T00:53:01.423Z,929.9
2018-05-18T00:53:14.369Z,929.87
2018-05-18T00:53:26.472Z,929.9
2018-05-18T00:53:38.955Z,929.93
2018-05-18T00:53:51.929Z,929.88
2018-05-18T00:54:04.929Z,929.89
2018-05-18T00:54:16.490Z,929.88
2018-05-18T00:54:29.458Z,929.87
2018-05-18T00:54:42.405Z,929.89
2018-05-18T00:54:54.447Z,929.89
2018-05-18T00:55:06.507Z,929.87
2018-05-18T00:55:18.993Z,929.87
2018-05-18T00:55:31.918Z,929.88
2018-05-18T00:55:44.016Z,929.89
2018-05-18T00:55:55.613Z,929.88
2018-05-18T00:56:07.641Z,929.85
2018-05-18T00:56:20.205Z,929.88
2018-05-18T00:56:33.189Z,929.88
2018-05-18T00:56:45.698Z,929.87
2018-05-18T00:56:58.207Z,929.84
2018-05-18T00:57:11.193Z,929.84
2018-05-18T00:57:23.721Z,929.87
2018-05-18T00:57:36.246Z,929.85
2018-05-18T00:57:48.776Z,929.87
2018-05-18T00:58:01.319Z,929.82
2018-05-18T00:58:14.320Z,929.84
2018-05-18T00:58:26.306Z,929.83
2018-05-18T00:58:38.813Z,929.83
2018-05-18T00:58:51.803Z,929.82
2018-05-18T00:59:03.398Z,929.82
2018-05-18T00:59:16.368Z,929.8
2018-05-18T00:59:29.327Z,929.76
2018-05-18T00:59:41.796Z,929.83
2018-05-18T00:59:53.842Z,929.77
2018-05-18T01:00:06.354Z,929.79
2018-05-18T01:00:18.859Z,929.81
2018-05-18T01:00:31.827Z,929.79
2018-05-18T01:00:44.361Z,929.78
2018-05-18T01:00:56.906Z,929.79
2018-05-18T01:01:09.872Z,929.76
2018-05-18T01:01:22.845Z,929.75
2018-05-18T01:01:35.340Z,929.77
2018-05-18T01:01:46.948Z,929.78
2018-05-18T01:01:59.928Z,929.79
2018-05-18T01:02:12.466Z,929.77
2018-05-18T01:02:25.426Z,929.81
2018-05-18T01:02:38.374Z,929.82
2018-05-18T01:02:50.407Z,929.77
2018-05-18T01:03:02.939Z,929.78
2018-05-18T01:03:15.873Z,929.75
2018-05-18T01:03:28.988Z,929.78
2018-05-18T01:03:41.926Z,929.78
2018-05-18T01:03:53.971Z,929.78
2018-05-18T01:04:06.973Z,929.82
2018-05-18T01:04:19.964Z,929.82
2018-05-18T01:04:32.676Z,929.8
2018-05-18T01:04:45.204Z,929.81
2018-05-18T01:04:57.702Z,929.82
2018-05-18T01:05:09.711Z,929.85
2018-05-18T01:05:22.191Z,929.82
2018-05-18T01:05:35.121Z,929.86
2018-05-18T01:05:48.044Z,929.83
2018-05-18T01:06:00.561Z,929.8
2018-05-18T01:06:13.534Z,929.84
2018-05-18T01:06:25.563Z,929.83
2018-05-18T01:06:38.540Z,929.8
2018-05-18T01:06:51.474Z,929.85
2018-05-18T01:07:04.452Z,929.82
2018-05-18T01:07:16.968Z,929.81
2018-05-18T01:07:30.006Z,929.82
2018-05-18T01:07:42.539Z,929.82
2018-05-18T01:07:55.434Z,929.81
2018-05-18T01:08:08.001Z,929.82
2018-05-18T01:08:21.024Z,929.83
2018-05-18T01:08:33.986Z,929.79
2018-05-18T01:08:46.404Z,929.83
2018-05-18T01:08:59.371Z,929.82
2018-05-18T01:09:11.793Z,929.86
2018-05-18T01:09:24.261Z,929.8
2018-05-18T01:09:36.792Z,929.83
2018-05-18T01:09:49.777Z,929.8
2018-05-18T01:10:02.349Z,929.82
2018-05-18T01:10:14.387Z,929.8
2018-05-18T01:10:27.352Z,929.82
2018-05-18T01:10:39.433Z,929.81
2018-05-18T01:10:51.992Z,929.85
2018-05-18T01:11:03.106Z,929.83
2018-05-18T01:11:15.608Z,929.82
2018-05-18T01:11:28.077Z,929.82
2018-05-18T01:11:40.602Z,929.85
2018-05-18T01:11:53.530Z,929.81
2018-05-18T01:12:06.015Z,929.84
2018-05-18T01:12:19.001Z,929.82
2018-05-18T01:12:30.577Z,929.82
2018-05-18T01:12:43.562Z,929.84
2018-05-18T01:12:56.098Z,929.86
2018-05-18T01:13:08.691Z,929.88
2018-05-18T01:13:20.731Z,929.84
2018-05-18T01:13:33.667Z,929.83
2018-05-18T01:13:46.618Z,929.83
2018-05-18T01:13:59.142Z,929.83
2018-05-18T01:14:12.094Z,929.85
2018-05-18T01:14:24.562Z,929.8
2018-05-18T01:14:36.588Z,929.82
2018-05-18T01:14:49.559Z,929.82
2018-05-18T01:15:02.050Z,929.82
2018-05-18T01:15:14.625Z,929.79
2018-05-18T01:15:27.650Z,929.82
2018-05-18T01:15:40.176Z,929.83
2018-05-18T01:15:53.445Z,929.82
2018-05-18T01:16:06.720Z,929.83
2018-05-18T01:16:19.688Z,929.81
2018-05-18T01:16:31.767Z,929.8
2018-05-18T01:16:44.710Z,929.79
2018-05-18T01:16:57.281Z,929.81
2018-05-18T01:17:10.228Z,929.78
2018-05-18T01:17:22.749Z,929.78
2018-05-18T01:17:35.707Z,929.78
2018-05-18T01:17:48.226Z,929.79
2018-05-18T01:18:00.788Z,929.77
2018-05-18T01:18:13.317Z,929.79
2018-05-18T01:18:25.922Z,929.8
2018-05-18T01:18:39.114Z,929.76
2018-05-18T01:18:51.165Z,929.8
2018-05-18T01:19:04.137Z,929.79
2018-05-18T01:19:17.124Z,929.79
2018-05-18T01:19:30.115Z,929.8
2018-05-18T01:19:43.065Z,929.78
2018-05-18T01:19:55.599Z,929.78
2018-05-18T01:20:07.179Z,929.75
2018-05-18T01:20:19.282Z,929.77
2018-05-18T01:20:31.784Z,929.8
2018-05-18T01:20:44.292Z,929.76
2018-05-18T01:20:57.244Z,929.72
2018-05-18T01:21:09.267Z,929.73
2018-05-18T01:21:21.329Z,929.74
2018-05-18T01:21:34.336Z,929.75
2018-05-18T01:21:46.858Z,929.75
2018-05-18T01:21:59.410Z,929.76
2018-05-18T01:22:12.348Z,929.7
2018-05-18T01:22:24.856Z,929.74
2018-05-18T01:22:37.786Z,929.76
2018-05-18T01:22:50.730Z,929.73
2018-05-18T01:23:03.742Z,929.78
2018-05-18T01:23:16.719Z,929.77
2018-05-18T01:23:29.177Z,929.75
2018-05-18T01:23:41.789Z,929.73
2018-05-18T01:23:53.324Z,929.77
2018-05-18T01:24:05.793Z,929.78
2018-05-18T01:24:18.324Z,929.72
2018-05-18T01:24:30.890Z,929.74
2018-05-18T01:24:43.434Z,929.76
2018-05-18T01:24:56.439Z,929.74
2018-05-18T01:25:08.915Z,929.74
2018-05-18T01:25:21.869Z,929.75
2018-05-18T01:25:34.355Z,929.77
2018-05-18T01:25:46.901Z,929.77
2018-05-18T01:25:59.869Z,929.77
2018-05-18T01:26:12.389Z,929.78
2018-05-18T01:26:25.339Z,929.81
2018-05-18T01:26:38.238Z,929.77
2018-05-18T01:26:51.182Z,929.76
2018-05-18T01:27:04.136Z,929.8
2018-05-18T01:27:16.668Z,929.78
2018-05-18T01:27:29.689Z,929.84
2018-05-18T01:27:42.648Z,929.83
2018-05-18T01:27:55.148Z,929.8
2018-05-18T01:28:08.130Z,929.8
2018-05-18T01:28:21.119Z,929.8
2018-05-18T01:28:33.656Z,929.83
2018-05-18T01:28:46.173Z,929.83
2018-05-18T01:28:59.157Z,929.85
2018-05-18T01:29:12.134Z,929.8
2018-05-18T01:29:24.696Z,929.81
2018-05-18T01:29:37.206Z,929.81
2018-05-18T01:29:49.712Z,929.85
2018-05-18T01:30:02.717Z,929.78
2018-05-18T01:30:15.223Z,929.82
2018-05-18T01:30:28.166Z,929.83
2018-05-18T01:30:41.208Z,929.83
2018-05-18T01:30:54.200Z,929.86
2018-05-18T01:31:07.120Z,929.83
2018-05-18T01:31:19.596Z,929.83
2018-05-18T01:31:31.601Z,929.83
2018-05-18T01:31:44.156Z,929.85
2018-05-18T01:31:57.126Z,929.83
2018-05-18T01:32:09.621Z,929.85
2018-05-18T01:32:22.112Z,929.82
2018-05-18T01:32:35.054Z,929.83
2018-05-18T01:32:47.995Z,929.81
2018-05-18T01:33:01.030Z,929.8
2018-05-18T01:33:14.054Z,929.79
2018-05-18T01:33:26.522Z,929.83
2018-05-18T01:33:38.809Z,929.84
2018-05-18T01:33:50.824Z,929.8
2018-05-18T01:34:03.768Z,929.82
2018-05-18T01:34:16.718Z,929.83
2018-05-18T01:34:29.227Z,929.81
2018-05-18T01:34:42.181Z,929.84
2018-05-18T01:34:55.136Z,929.82
2018-05-18T01:35:07.647Z,929.84
2018-05-18T01:35:20.672Z,929.86
2018-05-18T01:35:33.687Z,929.82
2018-05-18T01:35:46.178Z,929.85
2018-05-18T01:35:58.686Z,929.84
2018-05-18T01:36:10.716Z,929.85
2018-05-18T01:36:23.236Z,929.84
2018-05-18T01:36:35.745Z,929.85
2018-05-18T01:36:48.276Z,929.83
2018-05-18T01:37:01.246Z,929.8
2018-05-18T01:37:14.146Z,929.85
2018-05-18T01:37:27.166Z,929.82
2018-05-18T01:37:40.253Z,929.85
2018-05-18T01:37:52.783Z,929.82
2018-05-18T01:38:05.366Z,929.81
2018-05-18T01:38:18.345Z,929.78
2018-05-18T01:38:30.389Z,929.81
2018-05-18T01:38:43.397Z,929.84
2018-05-18T01:38:56.363Z,929.82
2018-05-18T01:39:08.451Z,929.79
2018-05-18T01:39:20.535Z,929.75
2018-05-18T01:39:32.142Z,929.8
2018-05-18T01:39:44.653Z,929.79
2018-05-18T01:39:57.161Z,929.8
2018-05-18T01:40:10.113Z,929.75
2018-05-18T01:40:22.159Z,929.77
2018-05-18T01:40:35.127Z,929.81
2018-05-18T01:40:47.652Z,929.75
2018-05-18T01:41:00.614Z,929.74
2018-05-18T01:41:13.057Z,929.77
2018-05-18T01:41:26.076Z,929.76
2018-05-18T01:41:39.066Z,929.75
2018-05-18T01:41:51.561Z,929.76
2018-05-18T01:42:04.045Z,929.77
2018-05-18T01:42:15.194Z,929.8
2018-05-18T01:42:28.168Z,929.77
2018-05-18T01:42:40.648Z,929.75
2018-05-18T01:42:53.655Z,929.76
2018-05-18T01:43:05.715Z,929.74
2018-05-18T01:43:18.230Z,929.75
2018-05-18T01:43:31.155Z,929.74
2018-05-18T01:43:43.644Z,929.72
2018-05-18T01:43:56.692Z,929.75
2018-05-18T01:44:09.629Z,929.72
2018-05-18T01:44:22.164Z,929.72
2018-05-18T01:44:34.260Z,929.73
2018-05-18T01:44:47.243Z,929.74
2018-05-18T01:44:59.734Z,929.75
2018-05-18T01:45:10.880Z,929.71
2018-05-18T01:45:22.874Z,929.75
2018-05-18T01:45:35.875Z,929.74
2018-05-18T01:45:48.410Z,929.75
2018-05-18T01:46:00.947Z,929.77
2018-05-18T01:46:13.464Z,929.71
2018-05-18T01:46:25.971Z,929.75
2018-05-18T01:46:38.490Z,929.73
2018-05-18T01:46:51.536Z,929.72
2018-05-18T01:47:03.990Z,929.71
2018-05-18T01:47:15.571Z,929.71
2018-05-18T01:47:28.613Z,929.7
2018-05-18T01:47:41.542Z,929.72
2018-05-18T01:47:54.520Z,929.72
2018-05-18T01:48:07.024Z,929.73
2018-05-18T01:48:19.978Z,929.74
2018-05-18T01:48:32.943Z,929.71
2018-05-18T01:48:46.303Z,929.71
2018-05-18T01:48:59.269Z,929.67
2018-05-18T01:49:11.777Z,929.69
2018-05-18T01:49:24.264Z,929.7
2018-05-18T01:49:36.277Z,929.69
2018-05-18T01:49:48.861Z,929.7
2018-05-18T01:50:01.324Z,929.71
2018-05-18T01:50:14.315Z,929.65
2018-05-18T01:50:27.304Z,929.69
2018-05-18T01:50:40.287Z,929.69
2018-05-18T01:50:52.808Z,929.67
2018-05-18T01:51:05.337Z,929.66
2018-05-18T01:51:17.803Z,929.67
2018-05-18T01:51:30.308Z,929.67
2018-05-18T01:51:42.843Z,929.66
2018-05-18T01:51:54.882Z,929.65
2018-05-18T01:52:06.899Z,929.69
2018-05-18T01:52:18.950Z,929.65
2018-05-18T01:52:31.975Z,929.66
2018-05-18T01:52:44.968Z,929.65
2018-05-18T01:52:57.931Z,929.64
2018-05-18T01:53:10.443Z,929.63
2018-05-18T01:53:23.495Z,929.64
2018-05-18T01:53:36.452Z,929.68
2018-05-18T01:53:49.078Z,929.68
2018-05-18T01:54:02.111Z,929.68
2018-05-18T01:54:15.082Z,929.63
2018-05-18T01:54:28.055Z,929.65
2018-05-18T01:54:40.085Z,929.64
2018-05-18T01:54:53.013Z,929.69
2018-05-18T01:55:05.509Z,929.66
2018-05-18T01:55:17.568Z,929.71
2018-05-18T01:55:30.550Z,929.67
2018-05-18T01:55:42.692Z,929.67
2018-05-18T01:55:55.694Z,929.68
2018-05-18T01:56:08.168Z,929.67
2018-05-18T01:56:20.662Z,929.66
2018-05-18T01:56:33.182Z,929.62
2018-05-18T01:56:45.208Z,929.67
2018-05-18T01:56:58.133Z,929.64
2018-05-18T01:57:11.072Z,929.68
2018-05-18T01:57:23.142Z,929.69
2018-05-18T01:57:36.122Z,929.65
2018-05-18T01:57:49.100Z,929.71
2018-05-18T01:58:01.151Z,929.67
2018-05-18T01:58:14.096Z,929.67
2018-05-18T01:58:27.112Z,929.66
2018-05-18T01:58:40.103Z,929.65
2018-05-18T01:58:53.061Z,929.65
2018-05-18T01:59:05.563Z,929.68
2018-05-18T01:59:18.065Z,929.68
2018-05-18T01:59:31.069Z,929.68
2018-05-18T01:59:43.609Z,929.67
2018-05-18T01:59:56.058Z,929.63
2018-05-18T02:00:08.527Z,929.61
2018-05-18T02:00:20.624Z,929.63
2018-05-18T02:00:33.135Z,929.64
2018-05-18T02:00:46.132Z,929.66
2018-05-18T02:00:59.127Z,929.63
2018-05-18T02:01:11.633Z,929.63
2018-05-18T02:01:24.129Z,929.61
2018-05-18T02:01:36.666Z,929.61
2018-05-18T02:01:49.654Z,929.62
2018-05-18T02:02:02.622Z,929.61
2018-05-18T02:02:15.636Z,929.62
2018-05-18T02:02:28.631Z,929.6
2018-05-18T02:02:41.137Z,929.57
2018-05-18T02:02:53.642Z,929.59
2018-05-18T02:03:06.631Z,929.6
2018-05-18T02:03:19.652Z,929.59
2018-05-18T02:03:32.621Z,929.6
2018-05-18T02:03:45.516Z,929.59
2018-05-18T02:03:58.885Z,929.59
2018-05-18T02:04:11.365Z,929.55
2018-05-18T02:04:23.411Z,929.56
2018-05-18T02:04:35.446Z,929.54
2018-05-18T02:04:47.974Z,929.58
2018-05-18T02:05:00.461Z,929.55
2018-05-18T02:05:12.989Z,929.55
2018-05-18T02:05:25.015Z,929.6
2018-05-18T02:05:36.546Z,929.58
2018-05-18T02:05:49.061Z,929.62
2018-05-18T02:06:01.546Z,929.56
2018-05-18T02:06:14.049Z,929.53
2018-05-18T02:06:27.034Z,929.58
2018-05-18T02:06:39.981Z,929.55
2018-05-18T02:06:53.024Z,929.58
2018-05-18T02:07:05.531Z,929.57
2018-05-18T02:07:18.431Z,929.57
2018-05-18T02:07:31.443Z,929.57
2018-05-18T02:07:44.429Z,929.62
2018-05-18T02:07:56.995Z,929.59
2018-05-18T02:08:09.482Z,929.56
2018-05-18T02:08:22.442Z,929.6
2018-05-18T02:08:35.508Z,929.54
2018-05-18T02:08:47.990Z,929.58
2018-05-18T02:09:00.468Z,929.56
2018-05-18T02:09:13.469Z,929.56
2018-05-18T02:09:26.489Z,929.57
2018-05-18T02:09:38.462Z,929.57
2018-05-18T02:09:51.473Z,929.54
2018-05-18T02:10:04.433Z,929.55
2018-05-18T02:10:17.458Z,929.59
2018-05-18T02:10:29.906Z,929.56
2018-05-18T02:10:42.956Z,929.56
2018-05-18T02:10:55.896Z,929.59
2018-05-18T02:11:07.954Z,929.61
2018-05-18T02:11:20.440Z,929.59
2018-05-18T02:11:32.529Z,929.59
2018-05-18T02:11:45.430Z,929.6
2018-05-18T02:11:57.855Z,929.6
2018-05-18T02:12:10.844Z,929.59
2018-05-18T02:12:23.781Z,929.56
2018-05-18T02:12:36.255Z,929.57
2018-05-18T02:12:48.840Z,929.54
2018-05-18T02:13:00.936Z,929.61
2018-05-18T02:13:13.868Z,929.56
2018-05-18T02:13:26.824Z,929.6
2018-05-18T02:13:39.251Z,929.6
2018-05-18T02:13:52.198Z,929.58
2018-05-18T02:14:04.254Z,929.56
2018-05-18T02:14:17.219Z,929.56
2018-05-18T02:14:29.298Z,929.59
2018-05-18T02:14:41.807Z,929.59
2018-05-18T02:14:54.861Z,929.56
2018-05-18T02:15:06.910Z,929.58
2018-05-18T02:15:19.400Z,929.61
2018-05-18T02:15:31.957Z,929.57
2018-05-18T02:15:44.998Z,929.58
2018-05-18T02:15:57.920Z,929.57
2018-05-18T02:16:10.885Z,929.58
2018-05-18T02:16:23.374Z,929.57
2018-05-18T02:16:35.881Z,929.55
2018-05-18T02:16:48.840Z,929.55
2018-05-18T02:17:01.750Z,929.55
2018-05-18T02:17:13.787Z,929.58
2018-05-18T02:17:26.273Z,929.55
2018-05-18T02:17:39.259Z,929.58
2018-05-18T02:17:52.248Z,929.56
2018-05-18T02:18:04.792Z,929.57
2018-05-18T02:18:17.777Z,929.54
2018-05-18T02:18:30.699Z,929.56
2018-05-18T02:18:42.754Z,929.56
2018-05-18T02:18:56.363Z,929.53
2018-05-18T02:19:08.378Z,929.56
2018-05-18T02:19:20.404Z,929.57
2018-05-18T02:19:33.463Z,929.55
2018-05-18T02:19:45.940Z,929.59
2018-05-18T02:19:57.941Z,929.58
2018-05-18T02:20:10.455Z,929.56
2018-05-18T02:20:23.415Z,929.58
2018-05-18T02:20:36.324Z,929.6
2018-05-18T02:20:49.311Z,929.57
2018-05-18T02:21:01.811Z,929.61
2018-05-18T02:21:14.287Z,929.59
2018-05-18T02:21:27.271Z,929.57
2018-05-18T02:21:39.250Z,929.58
2018-05-18T02:21:52.252Z,929.59
2018-05-18T02:22:05.266Z,929.57
2018-05-18T02:22:17.718Z,929.6
2018-05-18T02:22:30.675Z,929.6
2018-05-18T02:22:43.201Z,929.56
2018-05-18T02:22:55.258Z,929.56
2018-05-18T02:23:07.787Z,929.54
2018-05-18T02:23:19.384Z,929.52
2018-05-18T02:23:31.885Z,929.55
2018-05-18T02:23:44.865Z,929.56
2018-05-18T02:23:57.471Z,929.55
2018-05-18T02:24:10.033Z,929.53
2018-05-18T02:24:22.590Z,929.55
2018-05-18T02:24:34.613Z,929.57
2018-05-18T02:24:46.622Z,929.55
2018-05-18T02:24:59.605Z,929.55
2018-05-18T02:25:12.664Z,929.55
2018-05-18T02:25:25.627Z,929.56
2018-05-18T02:25:37.676Z,929.57
2018-05-18T02:25:50.623Z,929.51
2018-05-18T02:26:03.602Z,929.53
2018-05-18T02:26:16.078Z,929.55
2018-05-18T02:26:28.593Z,929.51
2018-05-18T02:26:41.635Z,929.53
2018-05-18T02:26:54.159Z,929.54
2018-05-18T02:27:07.143Z,929.5
2018-05-18T02:27:20.108Z,929.55
2018-05-18T02:27:32.604Z,929.54
2018-05-18T02:27:45.579Z,929.51
2018-05-18T02:27:58.147Z,929.55
2018-05-18T02:28:10.197Z,929.51
2018-05-18T02:28:22.707Z,929.53
2018-05-18T02:28:35.226Z,929.52
2018-05-18T02:28:47.283Z,929.52
2018-05-18T02:28:59.773Z,929.51
2018-05-18T02:29:11.333Z,929.51
2018-05-18T02:29:24.308Z,929.51
2018-05-18T02:29:36.782Z,929.5
2018-05-18T02:29:49.892Z,929.52
2018-05-18T02:30:02.919Z,929.51
2018-05-18T02:30:15.398Z,929.51
2018-05-18T02:30:27.493Z,929.49
2018-05-18T02:30:40.549Z,929.5
2018-05-18T02:30:53.038Z,929.47
2018-05-18T02:31:05.155Z,929.48
2018-05-18T02:31:17.695Z,929.49
2018-05-18T02:31:29.772Z,929.5
2018-05-18T02:31:42.355Z,929.49
2018-05-18T02:31:53.907Z,929.51
2018-05-18T02:32:06.406Z,929.51
2018-05-18T02:32:18.907Z,929.48
2018-05-18T02:32:31.403Z,929.5
2018-05-18T02:32:44.348Z,929.48
2018-05-18T02:32:56.878Z,929.49
2018-05-18T02:33:08.938Z,929.48
2018-05-18T02:33:21.862Z,929.44
2018-05-18T02:33:34.393Z,929.44
2018-05-18T02:33:47.052Z,929.42
2018-05-18T02:34:00.569Z,929.45
2018-05-18T02:34:13.621Z,929.43
2018-05-18T02:34:26.141Z,929.45
2018-05-18T02:34:39.180Z,929.43
2018-05-18T02:34:52.161Z,929.44
2018-05-18T02:35:04.221Z,929.44
2018-05-18T02:35:17.188Z,929.42
2018-05-18T02:35:30.209Z,929.43
2018-05-18T02:35:43.206Z,929.43
2018-05-18T02:35:56.253Z,929.43
2018-05-18T02:36:07.886Z,929.41
2018-05-18T02:36:20.915Z,929.4
2018-05-18T02:36:33.890Z,929.43
2018-05-18T02:36:46.430Z,929.43
2018-05-18T02:36:59.484Z,929.41
2018-05-18T02:37:12.084Z,929.43
2018-05-18T02:37:25.070Z,929.42
2018-05-18T02:37:37.654Z,929.41
2018-05-18T02:37:50.658Z,929.41
2018-05-18T02:38:03.666Z,929.41